Time;durP1;ratioP1;P1;durP2;ratioP2;P2;SDS_P1;SDS_P2;PMS_P1;PMS_P2;Temp;Humidity;BMP_temperature;BMP_pressure;BME280_temperature;BME280_humidity;BME280_pressure;Samples;Min_cycle;Max_cycle;Signal;HPM_P1;HPM_P2
2022/09/29 00:00:36;;;;;;;12.90;7.20;;;6.70;99.90;;;4.89;100.00;99178.03;4981698;28;20504;-78
2022/09/29 00:03:03;;;;;;;10.32;6.78;;;6.60;99.90;;;4.71;100.00;99170.63;4976425;28;20042;-79
2022/09/29 00:05:29;;;;;;;11.73;7.05;;;6.40;99.90;;;4.56;100.00;99176.31;4975248;28;20104;-78
2022/09/29 00:07:56;;;;;;;10.57;6.10;;;6.30;99.90;;;4.45;100.00;99172.38;4975702;28;20030;-79
2022/09/29 00:10:22;;;;;;;10.05;6.05;;;6.10;99.90;;;4.32;100.00;99167.84;4974815;28;20129;-79
2022/09/29 00:12:49;;;;;;;11.35;6.55;;;6.00;99.90;;;4.34;100.00;99164.97;4979089;28;20038;-79
2022/09/29 00:15:15;;;;;;;13.27;7.10;;;6.10;99.90;;;4.33;100.00;99171.41;4977125;28;20072;-79
2022/09/29 00:17:41;;;;;;;15.38;7.47;;;6.00;99.90;;;4.35;100.00;99174.72;4978708;28;20058;-79
2022/09/29 00:20:07;;;;;;;11.32;6.57;;;6.00;99.90;;;4.39;100.00;99177.84;4972267;28;20042;-79
2022/09/29 00:22:33;;;;;;;12.05;7.00;;;6.00;99.90;;;4.52;100.00;99172.38;4987070;28;20036;-78
2022/09/29 00:24:59;;;;;;;14.85;7.30;;;6.10;99.90;;;4.58;100.00;99166.09;4983436;28;20027;-79
2022/09/29 00:27:25;;;;;;;11.77;7.20;;;6.20;99.90;;;4.64;100.00;99171.69;4989674;28;20389;-78
2022/09/29 00:29:51;;;;;;;12.27;7.32;;;6.20;99.90;;;4.66;100.00;99165.03;4992675;28;20069;-78
2022/09/29 00:32:17;;;;;;;10.43;6.70;;;6.20;99.90;;;4.67;100.00;99165.88;4989728;28;20031;-78
2022/09/29 00:34:43;;;;;;;11.90;7.32;;;6.20;99.90;;;4.62;100.00;99169.22;4979336;28;20065;-78
2022/09/29 00:37:09;;;;;;;13.35;6.78;;;6.20;99.90;;;4.56;100.00;99162.78;4992531;28;20456;-78
2022/09/29 00:39:35;;;;;;;12.85;7.35;;;6.20;99.90;;;4.53;100.00;99173.22;4989189;28;20030;-79
2022/09/29 00:42:01;;;;;;;12.82;7.25;;;6.20;99.90;;;4.50;100.00;99168.22;4980148;28;20507;-79
2022/09/29 00:44:56;;;;;;;12.50;7.25;;;6.20;99.90;;;4.53;100.00;99175.91;4976256;28;20038;-78
2022/09/29 00:47:24;;;;;;;12.55;7.10;;;6.10;99.90;;;4.51;100.00;99173.41;4975442;28;20053;-78
2022/09/29 00:49:58;;;;;;;13.35;7.28;;;6.20;99.90;;;4.58;100.00;99170.69;4975768;28;20493;-79
2022/09/29 00:52:51;;;;;;;14.13;7.40;;;6.20;99.90;;;4.49;100.00;99166.56;4978137;28;20088;-79
2022/09/29 00:55:30;;;;;;;12.95;7.55;;;6.20;99.90;;;4.44;100.00;99178.84;4989088;28;20026;-78
2022/09/29 00:58:09;;;;;;;11.43;7.00;;;6.10;99.90;;;4.44;100.00;99170.72;4985546;28;20030;-79
2022/09/29 01:00:36;;;;;;;14.88;7.55;;;6.10;99.90;;;4.34;100.00;99151.47;4988441;28;20176;-79
2022/09/29 01:03:12;;;;;;;12.80;7.43;;;6.10;99.90;;;4.37;100.00;99171.78;4982425;28;20122;-78
2022/09/29 01:05:51;;;;;;;13.88;7.65;;;6.00;99.90;;;4.34;100.00;99172.22;4991954;28;20042;-78
2022/09/29 01:08:44;;;;;;;13.20;7.32;;;6.00;99.90;;;4.26;100.00;99168.72;4987190;28;20031;-78
2022/09/29 01:11:13;;;;;;;11.98;7.22;;;5.90;99.90;;;4.21;100.00;99173.91;4992328;28;20416;-78
2022/09/29 01:13:40;;;;;;;14.70;8.20;;;5.90;99.90;;;4.24;100.00;99167.25;4982434;28;20048;-79
2022/09/29 01:16:07;;;;;;;17.45;8.07;;;5.90;99.90;;;4.29;100.00;99173.69;4985175;28;20049;-78
2022/09/29 01:18:33;;;;;;;13.82;7.65;;;6.00;99.90;;;4.29;100.00;99164.78;4980449;28;20042;-78
2022/09/29 01:21:33;;;;;;;13.75;8.10;;;6.00;99.90;;;4.27;100.00;99173.06;4987242;28;20564;-78
2022/09/29 01:24:38;;;;;;;16.63;8.30;;;5.90;99.90;;;4.18;100.00;99167.06;4982886;28;20026;-79
2022/09/29 01:27:32;;;;;;;18.05;8.50;;;5.90;99.90;;;4.20;100.00;99176.81;4991190;28;20061;-78
2022/09/29 01:30:08;;;;;;;16.17;9.00;;;5.90;99.90;;;4.18;100.00;99177.03;4985269;28;20484;-78
2022/09/29 01:32:53;;;;;;;18.60;9.20;;;5.80;99.90;;;4.16;100.00;99173.72;4986432;28;20073;-78
2022/09/29 01:35:42;;;;;;;20.23;9.73;;;5.80;99.90;;;4.18;100.00;99177.03;4980684;28;20058;-80
2022/09/29 01:38:39;;;;;;;;;;;5.80;99.90;;;4.20;100.00;99187.63;4977650;28;20034;-79
2022/09/29 01:41:18;;;;;;;18.67;9.30;;;5.80;99.90;;;4.10;100.00;99182.66;4978118;28;21638;-80
2022/09/29 01:44:13;;;;;;;19.77;9.60;;;5.80;99.90;;;3.99;100.00;99190.34;4981851;28;20498;-79
2022/09/29 01:46:49;;;;;;;18.17;8.50;;;5.70;99.90;;;3.77;100.00;99186.22;4985370;28;20035;-80
2022/09/29 01:49:20;;;;;;;18.83;9.38;;;5.60;99.90;;;3.74;100.00;99192.88;4980609;28;20034;-80
2022/09/29 01:51:57;;;;;;;18.92;9.32;;;5.50;99.90;;;3.62;100.00;99186.44;4975318;28;20169;-80
2022/09/29 01:54:35;;;;;;;19.45;9.50;;;5.40;99.90;;;3.58;100.00;99186.84;4981780;28;20119;-80
2022/09/29 01:57:31;;;;;;;23.25;10.20;;;5.30;99.90;;;3.64;100.00;99190.59;4981752;28;20037;-80
2022/09/29 02:00:14;;;;;;;17.98;9.23;;;5.40;99.90;;;3.62;100.00;99186.44;4982795;28;20405;-80
2022/09/29 02:02:57;;;;;;;20.25;10.57;;;5.30;99.90;;;3.60;100.00;99183.94;4983912;28;20026;-80
2022/09/29 02:05:55;;;;;;;21.10;10.07;;;5.30;99.90;;;3.59;100.00;99188.50;4979751;28;20305;-81
2022/09/29 02:08:38;;;;;;;22.05;10.50;;;5.30;99.90;;;3.56;100.00;99188.91;4979718;28;20462;-80
2022/09/29 02:11:14;;;;;;;23.15;10.98;;;5.30;99.90;;;3.58;100.00;99191.38;4981996;28;20038;-80
2022/09/29 02:14:24;;;;;;;23.17;11.02;;;5.30;99.90;;;3.58;100.00;99192.25;4982811;28;20034;-80
2022/09/29 02:17:11;;;;;;;;;;;5.30;99.90;;;3.53;100.00;99189.34;4977964;28;20035;-80
2022/09/29 02:19:42;;;;;;;24.63;11.50;;;5.30;99.90;;;3.50;100.00;99178.97;4974318;28;19925;-80
2022/09/29 02:22:08;;;;;;;23.58;11.00;;;5.30;99.90;;;3.49;100.00;99193.47;4977756;28;20154;-80
2022/09/29 02:24:33;;;;;;;25.95;11.13;;;5.20;99.90;;;3.45;100.00;99201.16;4978902;28;20038;-79
2022/09/29 02:27:01;;;;;;;23.13;10.57;;;5.10;99.90;;;3.37;100.00;99195.13;4978098;28;20089;-80
2022/09/29 02:29:27;;;;;;;21.17;10.18;;;5.10;99.90;;;3.33;100.00;99193.88;4975922;28;20023;-80
2022/09/29 02:31:58;;;;;;;28.20;11.98;;;5.00;99.90;;;3.51;100.00;99193.25;4980449;28;20503;-79
2022/09/29 02:34:24;;;;;;;27.33;11.05;;;5.10;99.90;;;3.68;100.00;99193.69;4985089;28;20749;-79
2022/09/29 02:37:23;;;;;;;30.25;12.20;;;5.30;99.90;;;3.68;100.00;99199.06;4984505;28;20041;-79
2022/09/29 02:40:24;;;;;;;28.50;11.85;;;5.30;99.90;;;3.58;100.00;99181.44;4983009;28;20117;-79
2022/09/29 02:43:08;;;;;;;28.20;11.93;;;5.40;99.90;;;3.77;100.00;99197.84;4981192;28;20050;-79
2022/09/29 02:45:48;;;;;;;32.65;13.07;;;5.40;99.90;;;3.72;100.00;99197.66;4984099;28;20038;-79
2022/09/29 02:48:56;;;;;;;30.45;13.82;;;5.40;99.90;;;3.82;100.00;99200.75;4980055;28;20038;-79
2022/09/29 02:51:38;;;;;;;33.40;13.52;;;5.50;99.90;;;3.73;100.00;99194.72;4983234;28;20052;-79
2022/09/29 02:54:21;;;;;;;36.17;14.20;;;5.50;99.90;;;3.77;100.00;99197.84;4981417;28;20041;-80
2022/09/29 02:57:27;;;;;;;35.80;13.80;;;5.50;99.90;;;3.72;100.00;99201.16;4971281;28;20145;-80
2022/09/29 03:00:09;;;;;;;37.78;16.23;;;5.50;99.90;;;3.72;100.00;99203.84;4971171;28;20039;-80
2022/09/29 03:02:38;;;;;;;39.55;15.75;;;5.40;99.90;;;3.76;100.00;99203.44;4984337;28;20037;-80
2022/09/29 03:05:09;;;;;;;43.03;17.33;;;5.40;99.90;;;3.77;100.00;99205.09;4977099;28;20035;-79
2022/09/29 03:07:37;;;;;;;40.88;16.67;;;5.40;99.90;;;3.77;100.00;99205.09;4985623;28;20111;-79
2022/09/29 03:10:03;;;;;;;;;;;5.50;99.90;;;3.83;100.00;99207.81;4981881;28;20039;-79
2022/09/29 03:12:29;;;;;;;47.53;15.80;;;5.50;99.90;;;3.85;100.00;99203.03;4985463;28;20720;-78
2022/09/29 03:14:55;;;;;;;42.10;16.88;;;5.50;99.90;;;3.83;100.00;99204.25;4973029;28;20034;-78
2022/09/29 03:17:22;;;;;;;45.67;16.98;;;5.50;99.90;;;3.84;100.00;99206.75;4977080;28;20038;-78
2022/09/29 03:19:48;;;;;;;47.75;16.95;;;5.50;99.90;;;3.82;100.00;99208.84;4982429;28;20066;-78
2022/09/29 03:22:14;;;;;;;46.28;17.33;;;5.50;99.90;;;3.78;100.00;99218.41;4985355;28;20068;-79
2022/09/29 03:24:40;;;;;;;43.67;16.70;;;5.50;99.90;;;3.73;100.00;99213.59;4984210;28;20038;-80
2022/09/29 03:27:08;;;;;;;42.00;16.13;;;5.50;99.90;;;3.75;100.00;99213.41;4980737;28;20315;-80
2022/09/29 03:29:35;;;;;;;;;;;5.50;99.90;;;3.67;100.00;99210.91;4975606;28;20551;-79
2022/09/29 03:32:01;;;;;;;42.33;15.65;;;5.40;99.90;;;3.57;100.00;99212.16;4969385;28;20456;-80
2022/09/29 03:34:27;;;;;;;39.00;14.70;;;5.30;99.90;;;3.51;100.00;99215.69;4984921;28;20041;-80
2022/09/29 03:36:53;;;;;;;37.80;15.43;;;5.20;99.90;;;3.42;100.00;99206.09;4976741;28;20124;-84
2022/09/29 03:39:20;;;;;;;40.53;16.23;;;5.20;99.90;;;3.38;100.00;99213.78;4972672;28;20062;-84
2022/09/29 03:41:46;;;;;;;37.53;15.90;;;5.10;99.90;;;3.34;100.00;99219.78;4980964;28;20410;-85
2022/09/29 03:44:12;;;;;;;39.63;15.77;;;5.00;99.90;;;3.35;100.00;99214.22;4979335;28;20113;-84
2022/09/29 03:46:38;;;;;;;45.42;16.60;;;5.10;99.90;;;3.37;100.00;99209.44;4977404;28;20114;-85
2022/09/29 03:49:04;;;;;;;42.00;16.15;;;5.10;99.90;;;3.27;100.00;99212.53;4981950;28;20050;-85
2022/09/29 03:51:30;;;;;;;44.00;16.20;;;5.00;99.90;;;3.28;100.00;99226.81;4982221;28;20077;-79
2022/09/29 03:53:55;;;;;;;45.80;17.05;;;5.00;99.90;;;3.30;100.00;99212.13;4986342;28;20489;-79
2022/09/29 03:56:21;;;;;;;46.15;17.60;;;5.00;99.90;;;3.39;100.00;99217.31;4974492;28;20088;-79
2022/09/29 03:58:47;;;;;;;49.25;17.27;;;5.10;99.90;;;3.38;100.00;99219.19;4978324;28;20065;-84
2022/09/29 04:01:13;;;;;;;47.50;16.73;;;5.10;99.90;;;3.38;100.00;99221.03;4975777;28;20125;-83
2022/09/29 04:03:39;;;;;;;60.97;18.90;;;5.10;99.90;;;3.48;100.00;99226.88;4973169;28;20030;-84
2022/09/29 04:06:05;;;;;;;53.30;18.63;;;5.10;99.90;;;3.52;100.00;99225.44;4979126;28;20053;-84
2022/09/29 04:08:30;;;;;;;58.67;18.80;;;5.20;99.90;;;3.47;100.00;99225.22;4985106;28;20027;-82
2022/09/29 04:10:56;;;;;;;52.80;18.95;;;5.20;99.90;;;3.67;100.00;99235.19;4986465;28;20042;-85
2022/09/29 04:13:22;;;;;;;60.13;20.55;;;5.30;99.90;;;3.79;100.00;99246.19;4981688;28;20091;-84
2022/09/29 04:15:48;;;;;;;63.30;20.95;;;5.50;99.90;;;3.91;100.00;99243.69;4982309;28;20034;-84
2022/09/29 04:18:14;;;;;;;63.88;20.73;;;5.50;99.90;;;3.91;100.00;99233.75;4978353;28;20409;-84
2022/09/29 04:20:40;;;;;;;67.30;21.80;;;5.60;99.90;;;4.03;100.00;99245.56;4975830;28;20038;-84
2022/09/29 04:23:06;;;;;;;63.30;20.88;;;5.70;99.90;;;4.05;100.00;99236.44;4977508;28;20027;-84
2022/09/29 04:25:32;;;;;;;61.05;20.48;;;5.70;99.90;;;4.11;100.00;99247.22;4976128;28;20027;-87
2022/09/29 04:27:59;;;;;;;55.90;20.33;;;5.80;99.90;;;4.08;100.00;99241.41;4968095;28;20027;-84
2022/09/29 04:30:25;;;;;;;65.07;21.13;;;5.80;99.90;;;4.10;100.00;99248.28;4980253;28;20452;-85
2022/09/29 04:32:50;;;;;;;60.70;20.80;;;5.80;99.90;;;4.05;100.00;99242.69;4968599;28;20138;-83
2022/09/29 04:35:16;;;;;;;65.32;21.33;;;5.80;99.90;;;4.14;100.00;99251.41;4971273;28;20496;-83
2022/09/29 04:37:42;;;;;;;64.00;21.67;;;5.80;99.90;;;4.16;100.00;99247.44;4981838;28;20390;-84
2022/09/29 04:40:08;;;;;;;73.88;24.35;;;5.80;99.90;;;4.28;100.00;99257.63;4976572;28;20039;-84
2022/09/29 04:42:34;;;;;;;65.65;23.23;;;6.00;99.90;;;4.26;100.00;99247.00;4984628;28;20026;-83
2022/09/29 04:45:00;;;;;;;69.95;24.27;;;6.00;99.90;;;4.36;100.00;99251.13;4977916;28;20042;-84
2022/09/29 04:47:26;;;;;;;67.72;22.00;;;6.00;99.90;;;4.29;100.00;99252.00;4975520;28;20367;-84
2022/09/29 04:49:51;;;;;;;63.25;22.48;;;6.00;99.90;;;4.25;100.00;99245.34;4974703;28;20113;-83
2022/09/29 04:52:17;;;;;;;75.68;22.55;;;6.00;99.90;;;4.24;100.00;99246.38;4977722;28;20573;-83
2022/09/29 04:54:43;;;;;;;63.10;22.52;;;6.00;99.90;;;4.26;100.00;99263.22;4978845;28;20050;-82
2022/09/29 04:57:09;;;;;;;68.43;23.70;;;5.90;99.90;;;4.18;100.00;99256.16;4982590;28;20034;-83
2022/09/29 04:59:35;;;;;;;63.53;21.92;;;5.90;99.90;;;4.09;100.00;99251.16;4990122;28;20129;-85
2022/09/29 05:02:01;;;;;;;58.90;21.00;;;5.80;99.90;;;4.02;100.00;99249.31;4971776;28;20154;-84
2022/09/29 05:04:26;;;;;;;59.60;21.77;;;5.80;99.90;;;4.03;100.00;99263.66;4978606;28;20042;-85
2022/09/29 05:06:52;;;;;;;62.35;22.55;;;5.70;99.90;;;3.97;100.00;99256.34;4974628;28;20030;-83
2022/09/29 05:09:18;;;;;;;66.32;22.92;;;5.70;99.90;;;4.06;100.00;99268.63;4973160;28;20051;-86
2022/09/29 05:11:44;;;;;;;78.15;24.02;;;5.70;99.90;;;4.00;100.00;99264.06;4979357;28;20478;-82
2022/09/29 05:14:12;;;;;;;68.72;23.83;;;5.70;99.90;;;3.94;100.00;99264.88;4978207;28;20041;-81
2022/09/29 05:16:37;;;;;;;67.47;23.08;;;5.70;99.90;;;3.97;100.00;99276.09;4983769;28;20045;-82
2022/09/29 05:19:03;;;;;;;67.82;23.63;;;5.70;99.90;;;3.93;100.00;99263.22;4979381;28;20423;-83
2022/09/29 05:21:29;;;;;;;65.97;21.45;;;5.60;99.90;;;3.83;100.00;99271.72;4980692;28;20046;-83
2022/09/29 05:23:56;;;;;;;74.38;23.75;;;5.60;99.90;;;3.85;100.00;99267.78;4993943;28;20050;-82
2022/09/29 05:26:22;;;;;;;65.45;22.50;;;5.50;99.90;;;3.78;100.00;99277.75;4980905;28;20041;-82
2022/09/29 05:28:47;;;;;;;67.43;22.45;;;5.50;99.90;;;3.75;100.00;99283.56;4983514;28;20035;-83
2022/09/29 05:31:14;;;;;;;72.53;23.20;;;5.50;99.90;;;3.70;100.00;99272.53;4982645;28;20126;-82
2022/09/29 05:33:40;;;;;;;66.90;23.42;;;5.40;99.90;;;3.79;100.00;99282.09;4984318;28;20042;-84
2022/09/29 05:36:09;;;;;;;66.82;24.35;;;5.50;99.90;;;3.87;100.00;99284.59;4988718;28;20080;-80
2022/09/29 05:38:36;;;;;;;76.07;26.10;;;5.50;99.90;;;3.94;100.00;99292.72;4978221;28;20042;-83
2022/09/29 05:41:08;;;;;;;83.53;25.30;;;5.60;99.90;;;3.97;100.00;99289.59;4975487;28;20444;-82
2022/09/29 05:43:34;;;;;;;78.97;25.88;;;5.60;99.90;;;3.95;100.00;99283.56;4975866;28;20041;-81
2022/09/29 05:46:01;;;;;;;79.35;25.63;;;5.70;99.90;;;4.01;100.00;99292.72;4972126;28;20039;-82
2022/09/29 05:48:29;;;;;;;85.25;26.65;;;5.70;99.90;;;4.01;100.00;99287.31;4983765;28;20026;-83
2022/09/29 05:51:09;;;;;;;;;;;5.70;99.90;;;4.05;100.00;99290.41;4981281;28;20126;-82
2022/09/29 05:53:35;;;;;;;80.43;25.27;;;5.70;99.90;;;4.08;100.00;99293.53;4977486;28;19932;-84
2022/09/29 05:56:10;;;;;;;79.70;26.55;;;5.70;99.90;;;4.08;100.00;99288.13;4984395;28;20453;-82
2022/09/29 05:58:38;;;;;;;76.88;25.90;;;5.80;99.90;;;4.12;100.00;99292.09;4984118;28;20036;-81
2022/09/29 06:01:17;;;;;;;73.73;25.60;;;5.80;99.90;;;4.14;100.00;99284.59;4981915;28;20477;-83
2022/09/29 06:03:43;;;;;;;84.85;26.45;;;5.80;99.90;;;4.25;100.00;99295.84;4981638;28;20026;-82
2022/09/29 06:06:13;;;;;;;80.00;24.88;;;5.90;99.90;;;4.26;100.00;99294.78;4983113;28;20408;-79
2022/09/29 06:08:39;;;;;;;77.53;25.42;;;5.90;99.90;;;4.27;100.00;99288.34;4978327;28;20062;-83
2022/09/29 06:11:14;;;;;;;79.50;25.35;;;5.90;99.90;;;4.28;100.00;99290.81;4972154;28;20042;-81
2022/09/29 06:13:44;;;;;;;71.43;24.08;;;6.00;99.90;;;4.34;100.00;99291.03;4987040;28;20030;-80
2022/09/29 06:16:15;;;;;;;76.72;23.83;;;6.00;99.90;;;4.38;100.00;99295.00;4982604;28;20064;-81
2022/09/29 06:18:42;;;;;;;84.75;25.27;;;6.00;99.90;;;4.38;100.00;99293.09;4979214;28;20042;-81
2022/09/29 06:21:15;;;;;;;78.82;25.05;;;6.10;99.90;;;4.45;100.00;99304.72;4984045;28;20456;-81
2022/09/29 06:23:41;;;;;;;84.78;24.95;;;6.10;99.90;;;4.52;100.00;99304.72;4974297;28;20126;-80
2022/09/29 06:26:11;;;;;;;72.78;23.67;;;6.10;99.90;;;4.59;100.00;99288.50;4982947;28;20144;-81
2022/09/29 06:28:37;;;;;;;73.82;24.83;;;6.20;99.90;;;4.60;100.00;99293.69;4979005;28;20485;-81
2022/09/29 06:31:09;;;;;;;67.20;23.92;;;6.30;99.90;;;4.69;100.00;99297.00;4973068;28;20082;-82
2022/09/29 06:33:36;;;;;;;73.72;24.77;;;6.30;99.90;;;4.78;100.00;99303.00;4971865;28;20042;-83
2022/09/29 06:39:13;;;;;;;78.22;24.38;;;6.50;99.90;;;4.91;100.00;99310.25;4972448;28;20082;-81
2022/09/29 06:41:39;;;;;;;65.63;24.90;;;6.60;99.90;;;4.99;100.00;99307.31;4985632;28;20117;-80
2022/09/29 06:44:07;;;;;;;81.78;25.92;;;6.60;99.90;;;5.09;100.00;99303.34;4982853;28;20055;-79
2022/09/29 06:46:34;;;;;;;67.40;25.27;;;6.70;99.90;;;5.21;100.00;99304.31;4987680;28;20375;-80
2022/09/29 06:49:00;;;;;;;72.35;25.83;;;6.80;99.90;;;5.21;100.00;99307.03;4976413;28;20019;-79
2022/09/29 06:51:26;;;;;;;76.47;26.00;;;6.80;99.90;;;5.28;100.00;99305.13;4982757;28;20096;-79
2022/09/29 06:53:52;;;;;;;73.25;25.88;;;6.90;99.90;;;5.33;100.00;99304.47;4985807;28;20495;-79
2022/09/29 06:56:19;;;;;;;69.28;25.48;;;6.90;99.90;;;5.38;100.00;99299.25;4976548;28;20038;-79
2022/09/29 06:58:45;;;;;;;71.53;25.40;;;7.00;99.90;;;5.46;100.00;99306.28;4979080;28;20356;-80
2022/09/29 07:01:11;;;;;;;65.15;24.55;;;7.10;99.90;;;5.56;100.00;99301.22;4976878;28;20049;-79
2022/09/29 07:03:37;;;;;;;66.30;25.50;;;7.10;99.90;;;5.58;100.00;99307.28;4976337;28;20046;-78
2022/09/29 07:06:09;;;;;;;59.97;24.48;;;7.20;99.90;;;5.69;100.00;99319.25;4981441;28;20030;-79
2022/09/29 07:08:37;;;;;;;61.63;25.08;;;7.20;99.90;;;5.75;100.00;99309.44;4986521;28;20173;-80
2022/09/29 07:11:03;;;;;;;62.67;25.77;;;7.30;99.90;;;5.85;100.00;99320.66;4986125;28;20122;-78
2022/09/29 07:13:29;;;;;;;57.83;23.52;;;7.40;99.90;;;5.96;100.00;99321.00;4974740;28;20034;-78
2022/09/29 07:15:55;;;;;;;67.25;25.48;;;7.40;99.90;;;6.00;100.00;99303.25;4978705;28;20038;-79
2022/09/29 07:18:21;;;;;;;56.85;24.48;;;7.50;99.90;;;6.13;100.00;99314.03;4975744;28;20071;-79
2022/09/29 07:20:47;;;;;;;62.95;25.67;;;7.60;99.90;;;6.23;100.00;99316.22;4979461;28;20061;-79
2022/09/29 07:23:13;;;;;;;53.20;23.35;;;7.70;99.90;;;6.26;100.00;99325.78;4972154;28;20038;-79
2022/09/29 07:25:39;;;;;;;60.05;24.55;;;7.70;99.90;;;6.41;100.00;99328.16;4983355;28;20049;-79
2022/09/29 07:28:04;;;;;;;51.92;22.92;;;7.80;99.90;;;6.50;100.00;99328.72;4981663;28;20085;-80
2022/09/29 07:30:30;;;;;;;51.00;22.48;;;7.90;99.90;;;6.57;100.00;99322.19;4971325;28;20072;-79
2022/09/29 07:32:56;;;;;;;55.80;24.45;;;8.00;99.90;;;6.64;100.00;99329.41;4974354;28;20034;-79
2022/09/29 07:35:23;;;;;;;47.75;22.02;;;8.10;99.90;;;6.70;100.00;99328.53;4977090;28;20161;-80
2022/09/29 07:37:53;;;;;;;50.97;22.77;;;8.20;99.90;;;6.84;100.00;99335.47;4980297;28;20030;-80
2022/09/29 07:40:21;;;;;;;49.33;21.20;;;8.30;99.90;;;7.00;100.00;99341.34;4983204;28;20193;-79
2022/09/29 07:42:48;;;;;;;44.00;21.83;;;8.30;99.90;;;7.02;100.00;99340.09;4975376;28;20035;-79
2022/09/29 07:45:15;;;;;;;45.88;22.50;;;8.40;99.90;;;7.15;100.00;99330.97;4983364;28;20038;-79
2022/09/29 07:47:41;;;;;;;42.20;20.77;;;8.50;99.90;;;7.44;100.00;99341.28;4985171;28;20034;-78
2022/09/29 07:50:07;;;;;;;37.25;19.98;;;8.70;99.90;;;7.57;100.00;99346.53;4978722;28;20038;-78
2022/09/29 07:52:33;;;;;;;37.05;18.58;;;8.90;99.90;;;7.72;100.00;99353.44;4983926;28;20792;-79
2022/09/29 07:54:59;;;;;;;35.67;18.83;;;9.00;99.90;;;7.78;100.00;99355.25;4982640;28;20477;-80
2022/09/29 07:57:24;;;;;;;32.67;18.75;;;9.10;99.90;;;7.94;100.00;99353.75;4976852;28;20092;-79
2022/09/29 07:59:51;;;;;;;30.02;17.33;;;9.30;99.90;;;7.94;100.00;99352.91;4980884;28;20030;-78
2022/09/29 08:02:16;;;;;;;28.17;16.02;;;9.40;99.90;;;8.08;100.00;99354.38;4973041;28;20045;-79
2022/09/29 08:04:42;;;;;;;28.17;16.88;;;;;;;8.28;100.00;99364.13;4976367;28;20528;-78
2022/09/29 08:07:09;;;;;;;26.90;16.30;;;9.60;99.90;;;8.38;100.00;99364.38;4984582;28;20038;-78
2022/09/29 08:09:35;;;;;;;25.63;15.13;;;9.80;99.90;;;8.57;100.00;99356.16;4983264;28;20034;-78
2022/09/29 08:12:01;;;;;;;26.00;15.32;;;10.00;99.90;;;8.77;100.00;99372.97;4981444;28;20096;-77
2022/09/29 08:14:27;;;;;;;23.45;14.15;;;10.20;99.90;;;8.83;100.00;99382.06;4979234;28;20512;-78
2022/09/29 08:16:53;;;;;;;25.25;14.95;;;10.30;99.90;;;9.12;100.00;99384.06;4978803;28;20031;-77
2022/09/29 08:19:19;;;;;;;23.83;14.48;;;10.50;99.90;;;9.21;100.00;99377.19;4974179;28;20034;-78
2022/09/29 08:21:48;;;;;;;23.63;13.57;;;10.70;99.90;;;9.39;100.00;99386.28;4971033;28;20031;-77
2022/09/29 08:24:14;;;;;;;23.63;13.43;;;10.80;99.90;;;9.49;100.00;99389.19;4979353;28;20042;-77
2022/09/29 08:26:40;;;;;;;21.42;13.70;;;11.00;99.90;;;9.66;100.00;99374.84;4978462;28;20088;-77
2022/09/29 08:29:06;;;;;;;22.70;13.63;;;11.10;99.90;;;9.77;100.00;99380.25;4978737;28;20316;-77
2022/09/29 08:31:32;;;;;;;20.45;13.13;;;11.30;99.90;;;10.03;100.00;99386.19;4979761;28;20050;-75
2022/09/29 08:33:58;;;;;;;21.65;12.70;;;11.50;99.90;;;9.82;100.00;99382.25;4983372;28;20038;-75
2022/09/29 08:36:25;;;;;;;23.58;14.13;;;11.50;99.90;;;10.06;100.00;99395.75;4976925;28;20126;-75
2022/09/29 08:38:54;;;;;;;21.83;13.75;;;11.60;99.90;;;10.03;100.00;99390.78;4978152;28;20069;-76
2022/09/29 08:41:38;;;;;;;20.52;12.93;;;11.70;99.90;;;10.25;100.00;99401.00;4974368;28;20547;-75
2022/09/29 08:44:28;;;;;;;21.48;13.27;;;11.80;99.90;;;10.49;100.00;99397.09;4980091;28;20445;-74
2022/09/29 08:47:04;;;;;;;20.98;12.38;;;12.00;99.90;;;10.67;100.00;99384.31;4981381;28;20039;-74
2022/09/29 08:49:44;;;;;;;20.58;12.82;;;12.20;99.90;;;10.90;100.00;99387.91;4981658;28;20018;-74
2022/09/29 08:52:58;;;;;;;19.42;12.13;;;12.50;99.90;;;11.15;100.00;99401.09;4981367;28;20050;-74
2022/09/29 08:55:42;;;;;;;20.40;12.75;;;12.60;99.90;;;11.40;98.00;99398.97;4980511;28;20548;-74
2022/09/29 08:58:13;;;;;;;18.33;11.57;;;12.80;99.90;;;11.29;97.47;99404.31;4982522;28;20050;-74
2022/09/29 09:01:02;;;;;;;18.60;11.15;;;12.90;99.90;;;11.59;98.19;99407.69;4982942;28;20038;-74
2022/09/29 09:04:00;;;;;;;20.30;11.40;;;13.10;99.90;;;11.59;95.90;99407.69;4980835;28;20485;-75
2022/09/29 09:07:13;;;;;;;16.80;10.93;;;13.10;99.90;;;11.54;93.37;99407.59;4981030;28;20042;-73
2022/09/29 09:09:55;;;;;;;16.10;10.85;;;13.10;99.90;;;11.37;93.67;99412.03;4973044;28;20520;-76
2022/09/29 09:13:30;;;;;;;15.48;10.25;;;13.10;99.90;;;11.51;94.58;99412.50;4973771;28;20366;-75
2022/09/29 09:16:32;;;;;;;14.20;9.32;;;13.10;99.90;;;11.73;94.97;99413.59;4961132;28;20027;-76
2022/09/29 09:19:38;;;;;;;12.57;8.82;;;13.30;99.90;;;11.74;89.50;99412.53;4963325;28;20035;-75
2022/09/29 09:22:37;;;;;;;12.45;8.55;;;13.30;99.90;;;12.02;88.63;99418.88;4978267;28;20509;-75
2022/09/29 09:25:34;;;;;;;14.48;9.38;;;13.40;99.90;;;12.32;87.26;99415.63;4981002;28;20026;-75
2022/09/29 09:28:44;;;;;;;14.25;8.23;;;13.70;99.90;;;12.77;84.80;99423.69;4979912;28;20087;-75
2022/09/29 09:31:31;;;;;;;11.95;8.00;;;14.10;99.90;;;12.77;82.86;99419.03;4978657;28;20117;-75
2022/09/29 09:34:19;;;;;;;12.52;8.27;;;14.30;99.90;;;12.52;84.58;99419.63;4976981;28;20038;-75
2022/09/29 09:37:23;;;;;;;11.57;7.53;;;14.20;99.90;;;12.64;81.80;99414.84;4970911;28;21822;-75
2022/09/29 09:40:13;;;;;;;13.35;8.40;;;14.20;99.90;;;12.50;86.60;99427.28;4989093;28;20046;-75
2022/09/29 09:42:48;;;;;;;13.80;8.30;;;14.30;99.90;;;13.06;80.84;99432.41;4984503;28;20481;-75
2022/09/29 09:45:40;;;;;;;11.68;8.18;;;15.00;99.90;;;13.71;76.91;99433.31;4975323;28;20113;-75
2022/09/29 09:48:24;;;;;;;10.75;7.03;;;16.10;99.90;;;13.92;74.87;99439.69;4977443;28;20074;-77
2022/09/29 09:50:50;;;;;;;11.27;7.05;;;17.00;98.50;;;14.70;71.39;99429.72;4985515;28;20058;-75
2022/09/29 09:53:36;;;;;;;11.25;7.63;;;17.80;95.70;;;14.97;67.35;99445.13;4984488;28;20027;-76
2022/09/29 09:56:26;;;;;;;12.52;7.00;;;17.90;93.00;;;16.01;66.38;99442.94;4977819;28;20042;-74
2022/09/29 09:59:34;;;;;;;11.27;6.70;;;18.50;93.10;;;17.82;59.01;99443.38;4980483;28;20058;-75
2022/09/29 10:02:00;;;;;;;11.10;7.07;;;19.50;90.50;;;18.72;54.31;99439.13;4988073;28;20034;-75
2022/09/29 10:04:26;;;;;;;9.60;6.60;;;20.10;85.00;;;19.24;51.42;99452.88;4974410;28;20409;-74
2022/09/29 10:06:52;;;;;;;9.27;6.65;;;20.30;83.00;;;19.15;52.89;99444.47;4975775;28;20062;-75
2022/09/29 10:09:18;;;;;;;10.02;6.43;;;20.20;82.50;;;20.91;48.26;99440.81;4975447;28;20081;-76
2022/09/29 10:11:45;;;;;;;8.82;6.43;;;;;;;21.65;46.79;99449.69;4979121;28;20081;-74
2022/09/29 10:14:14;;;;;;;8.15;5.60;;;;;;;19.95;49.06;99449.06;4971637;28;20039;-75
2022/09/29 10:16:56;;;;;;;9.02;6.07;;;21.70;75.60;;;21.10;46.79;99442.56;4981867;28;20034;-75
2022/09/29 10:19:43;;;;;;;9.43;6.22;;;;;;;22.95;43.37;99462.44;4979774;28;20481;-75
2022/09/29 10:22:13;;;;;;;9.00;6.30;;;;;;;22.38;42.63;99447.56;4981225;28;20479;-76
2022/09/29 10:24:40;;;;;;;9.85;5.72;;;;;;;22.57;39.62;99455.59;4980583;28;20045;-75
2022/09/29 10:27:06;;;;;;;9.40;5.90;;;;;;;21.38;42.07;99461.78;4983076;28;20390;-78
2022/09/29 10:29:51;;;;;;;8.25;5.63;;;;;;;22.88;39.15;99462.94;4981353;28;20042;-75
2022/09/29 10:32:37;;;;;;;7.43;5.07;;;;;;;24.19;34.87;99454.47;4982307;28;20035;-76
2022/09/29 10:35:23;;;;;;;7.05;4.93;;;;;;;24.14;34.39;99452.72;4980599;28;20405;-78
2022/09/29 10:38:01;;;;;;;7.65;5.30;;;;;;;20.06;41.68;99449.66;4983097;28;20093;-76
2022/09/29 10:40:27;;;;;;;7.82;4.82;;;;;;;21.62;39.81;99447.53;4995794;28;20125;-75
2022/09/29 10:42:56;;;;;;;7.57;4.75;;;;;;;22.61;39.49;99459.38;4967203;28;20038;-76
2022/09/29 10:45:24;;;;;;;4.43;2.92;;;;;;;22.93;36.79;99451.66;4974983;28;20482;-79